createdAt,value
2022-12-14T00:01:52.818Z,-1.61
2022-12-14T00:04:23.022Z,-1.56
2022-12-14T00:06:49.847Z,-1.52
2022-12-14T00:09:16.561Z,-1.44
2022-12-14T00:11:45.906Z,-1.42
2022-12-14T00:14:16.711Z,-1.41
2022-12-14T00:16:48.926Z,-1.53
2022-12-14T00:19:22.546Z,-1.47
2022-12-14T00:22:04.052Z,-1.49
2022-12-14T00:24:36.579Z,-1.52
2022-12-14T00:27:08.652Z,-1.57
2022-12-14T00:29:53.268Z,-1.43
2022-12-14T00:32:24.676Z,-1.44
2022-12-14T00:34:55.673Z,-1.44
2022-12-14T00:37:32.825Z,-1.43
2022-12-14T00:40:02.128Z,-1.48
2022-12-14T00:42:38.466Z,-1.50
2022-12-14T00:45:08.849Z,-1.47
2022-12-14T00:47:42.028Z,-1.46
2022-12-14T00:50:12.462Z,-1.59
2022-12-14T00:52:50.936Z,-1.44
2022-12-14T00:55:19.691Z,-1.48
2022-12-14T00:57:55.777Z,-1.47
2022-12-14T01:00:31.358Z,-1.48
2022-12-14T01:03:02.457Z,-1.48
2022-12-14T01:05:37.726Z,-1.56
2022-12-14T01:08:17.543Z,-1.49
2022-12-14T01:10:55.900Z,-1.56
2022-12-14T01:13:32.538Z,-1.62
2022-12-14T01:16:04.850Z,-1.62
2022-12-14T01:18:40.229Z,-1.78
2022-12-14T01:21:21.625Z,-1.75
2022-12-14T01:24:08.178Z,-1.79
2022-12-14T01:26:42.801Z,-1.84
2022-12-14T01:29:22.740Z,-1.80
2022-12-14T01:31:51.827Z,-1.80
2022-12-14T01:34:21.360Z,-1.80
2022-12-14T01:36:51.596Z,-1.83
2022-12-14T01:39:27.175Z,-1.84
2022-12-14T01:42:01.167Z,-1.85
2022-12-14T01:44:35.972Z,-1.87
2022-12-14T01:47:38.521Z,-1.91
2022-12-14T01:50:09.700Z,-1.94
2022-12-14T01:52:40.547Z,-1.96
2022-12-14T01:55:13.473Z,-1.94
2022-12-14T01:58:09.104Z,-1.99
2022-12-14T02:00:36.675Z,-2.02
2022-12-14T02:03:19.398Z,-2.07
2022-12-14T02:05:52.950Z,-2.07
2022-12-14T02:08:26.319Z,-2.09
2022-12-14T02:11:01.903Z,-2.13
2022-12-14T02:13:35.750Z,-2.14
2022-12-14T02:16:07.822Z,-2.10
2022-12-14T02:18:41.047Z,-2.10
2022-12-14T02:21:21.875Z,-2.11
2022-12-14T02:23:54.275Z,-2.10
2022-12-14T02:26:28.991Z,-2.15
2022-12-14T02:29:00.137Z,-2.18
2022-12-14T02:31:29.873Z,-2.20
2022-12-14T02:34:02.464Z,-2.24
2022-12-14T02:36:58.598Z,-2.22
2022-12-14T02:39:27.895Z,-2.26
2022-12-14T02:42:01.596Z,-2.24
2022-12-14T02:44:53.998Z,-2.28
2022-12-14T02:47:30.915Z,-2.29
2022-12-14T02:50:19.478Z,-2.26
2022-12-14T02:53:11.356Z,-2.26
2022-12-14T02:55:44.164Z,-2.28
2022-12-14T02:58:19.912Z,-2.33
2022-12-14T03:00:49.982Z,-2.40
2022-12-14T03:03:23.868Z,-2.42
2022-12-14T03:06:25.944Z,-2.46
2022-12-14T03:09:19.174Z,-2.44
2022-12-14T03:12:01.910Z,-2.41
2022-12-14T03:14:38.671Z,-2.44
2022-12-14T03:17:13.226Z,-2.45
2022-12-14T03:19:50.727Z,-2.46
2022-12-14T03:22:25.592Z,-2.49
2022-12-14T03:24:59.192Z,-2.48
2022-12-14T03:27:33.212Z,-2.50
2022-12-14T03:30:02.794Z,-2.53
2022-12-14T03:32:32.067Z,-2.55
2022-12-14T03:35:02.962Z,-2.58
2022-12-14T03:37:32.989Z,-2.57
2022-12-14T03:39:59.982Z,-2.57
2022-12-14T03:42:39.945Z,-2.60
2022-12-14T03:45:16.543Z,-2.61
2022-12-14T03:48:03.658Z,-2.67
2022-12-14T03:50:47.095Z,-2.68
2022-12-14T03:53:20.827Z,-2.64
2022-12-14T03:55:49.105Z,-2.63
2022-12-14T03:58:24.029Z,-2.63
2022-12-14T04:01:00.983Z,-2.67
2022-12-14T04:03:49.589Z,-2.67
2022-12-14T04:06:37.564Z,-2.69
2022-12-14T04:09:17.788Z,-2.70
2022-12-14T04:12:12.647Z,-2.72
2022-12-14T04:15:06.238Z,-2.72
2022-12-14T04:17:56.491Z,-2.75
2022-12-14T04:20:27.955Z,-2.77
2022-12-14T04:23:02.957Z,-2.82
2022-12-14T04:25:53.271Z,-2.86
2022-12-14T04:28:42.414Z,-2.90
2022-12-14T04:31:15.918Z,-2.91
2022-12-14T04:33:54.449Z,-2.93
2022-12-14T04:36:52.128Z,-2.94
2022-12-14T04:39:39.578Z,-2.97
2022-12-14T04:42:23.523Z,-2.96
2022-12-14T04:44:54.862Z,-2.97
2022-12-14T04:47:30.164Z,-3.01
2022-12-14T04:50:01.813Z,-3.02
2022-12-14T04:52:33.471Z,-3.03
2022-12-14T04:55:15.189Z,-3.06
2022-12-14T04:57:46.584Z,-3.08
2022-12-14T05:00:13.355Z,-3.12
2022-12-14T05:02:47.901Z,-3.12
2022-12-14T05:05:14.235Z,-3.15
2022-12-14T05:07:53.263Z,-3.19
2022-12-14T05:10:24.027Z,-3.21
2022-12-14T05:13:00.740Z,-3.28
2022-12-14T05:15:31.767Z,-3.33
2022-12-14T05:18:01.864Z,-3.33
2022-12-14T05:20:28.304Z,-3.35
2022-12-14T05:22:54.654Z,-3.40
2022-12-14T05:25:21.101Z,-3.49
2022-12-14T05:27:47.475Z,-3.46
2022-12-14T05:30:13.940Z,-3.48
2022-12-14T05:32:40.321Z,-3.48
2022-12-14T05:35:07.191Z,-3.47
2022-12-14T05:37:33.588Z,-3.46
2022-12-14T05:39:59.970Z,-3.50
2022-12-14T05:42:26.430Z,-3.55
2022-12-14T05:44:52.774Z,-3.57
2022-12-14T05:47:19.111Z,-3.62
2022-12-14T05:49:45.695Z,-3.65
2022-12-14T05:52:15.737Z,-3.65
2022-12-14T05:54:42.133Z,-3.69
2022-12-14T05:57:08.595Z,-3.70
2022-12-14T05:59:34.979Z,-3.71
2022-12-14T06:02:01.533Z,-3.72
2022-12-14T06:04:28.173Z,-3.77
2022-12-14T06:06:54.937Z,-3.89
2022-12-14T06:09:21.317Z,-3.89
2022-12-14T06:11:47.781Z,-3.90
2022-12-14T06:14:14.396Z,-3.96
2022-12-14T06:16:41.686Z,-3.97
2022-12-14T06:19:08.783Z,-3.93
2022-12-14T06:21:36.143Z,-3.97
2022-12-14T06:24:03.284Z,-3.96
2022-12-14T06:26:30.312Z,-3.97
2022-12-14T06:28:57.128Z,-4.01
2022-12-14T06:31:27.942Z,-4.03
2022-12-14T06:33:54.737Z,-4.03
2022-12-14T06:36:31.953Z,-4.05
2022-12-14T06:39:00.339Z,-4.00
2022-12-14T06:41:26.753Z,-3.99
2022-12-14T06:43:53.666Z,-3.99
2022-12-14T06:46:20.982Z,-4.01
2022-12-14T06:48:51.324Z,-4.00
2022-12-14T06:51:17.862Z,-4.02
2022-12-14T06:53:44.216Z,-4.05
2022-12-14T06:56:14.872Z,-4.08
2022-12-14T06:58:41.834Z,-4.17
2022-12-14T07:01:10.021Z,-4.14
2022-12-14T07:03:36.885Z,-4.15
2022-12-14T07:06:04.042Z,-4.17
2022-12-14T07:08:31.355Z,-4.16
2022-12-14T07:11:02.583Z,-4.17
2022-12-14T07:13:29.787Z,-4.19
2022-12-14T07:15:57.269Z,-4.21
2022-12-14T07:18:23.959Z,-4.28
2022-12-14T07:21:04.549Z,-4.38
2022-12-14T07:23:32.126Z,-4.28
2022-12-14T07:26:02.552Z,-4.24
2022-12-14T07:28:29.216Z,-4.21
2022-12-14T07:30:56.598Z,-4.20
2022-12-14T07:33:23.411Z,-4.18
2022-12-14T07:35:50.618Z,-4.23
2022-12-14T07:38:17.417Z,-4.21
2022-12-14T07:40:44.301Z,-4.21
2022-12-14T07:43:10.923Z,-4.19
2022-12-14T07:45:37.318Z,-4.19
2022-12-14T07:48:06.172Z,-4.18
2022-12-14T07:50:32.487Z,-4.17
2022-12-14T07:52:58.900Z,-4.18
2022-12-14T07:55:25.990Z,-4.17
2022-12-14T07:57:52.319Z,-4.17
2022-12-14T08:00:18.797Z,-4.19
2022-12-14T08:02:45.247Z,-4.21
2022-12-14T08:05:12.976Z,-4.21
2022-12-14T08:07:39.582Z,-4.21
2022-12-14T08:10:06.238Z,-4.21
2022-12-14T08:12:32.654Z,-4.23
2022-12-14T08:14:59.053Z,-4.24
2022-12-14T08:17:25.490Z,-4.29
2022-12-14T08:19:51.884Z,-4.29
2022-12-14T08:22:18.212Z,-4.26
2022-12-14T08:24:44.579Z,-4.23
2022-12-14T08:27:16.256Z,-4.15
2022-12-14T08:29:42.646Z,-3.72
2022-12-14T08:32:08.963Z,-3.16
2022-12-14T08:34:35.333Z,-2.77
2022-12-14T08:37:01.812Z,-2.46
2022-12-14T08:39:28.307Z,-2.29
2022-12-14T08:41:55.353Z,-2.13
2022-12-14T08:44:21.653Z,-1.84
2022-12-14T08:46:48.226Z,-1.65
2022-12-14T08:49:14.750Z,-1.60
2022-12-14T08:51:41.921Z,-1.73
2022-12-14T08:54:08.298Z,-2.04
2022-12-14T08:56:34.885Z,-2.28
2022-12-14T08:59:01.517Z,-2.44
2022-12-14T09:01:33.624Z,-2.42
2022-12-14T09:04:08.014Z,-2.33
2022-12-14T09:06:36.905Z,-2.30
2022-12-14T09:09:03.999Z,-2.64
2022-12-14T09:11:30.420Z,-2.61
2022-12-14T09:13:56.835Z,-2.57
2022-12-14T09:16:26.177Z,-2.46
2022-12-14T09:18:53.054Z,-2.54
2022-12-14T09:21:19.461Z,-2.47
2022-12-14T09:23:46.333Z,-2.49
2022-12-14T09:26:17.403Z,-2.38
2022-12-14T09:28:54.187Z,-2.28
2022-12-14T09:31:21.698Z,-2.29
2022-12-14T09:33:48.355Z,-2.19
2022-12-14T09:36:19.534Z,-2.16
2022-12-14T09:38:51.183Z,-2.05
2022-12-14T09:41:33.807Z,-1.95
2022-12-14T09:44:19.151Z,-1.84
2022-12-14T09:47:04.346Z,-1.67
2022-12-14T09:49:31.985Z,-1.70
2022-12-14T09:52:03.296Z,-1.63
2022-12-14T09:54:33.220Z,-1.54
2022-12-14T09:57:03.077Z,-1.37
2022-12-14T09:59:30.063Z,-1.13
2022-12-14T10:02:31.078Z,-0.94
2022-12-14T10:05:14.777Z,-0.57
2022-12-14T10:08:06.889Z,-0.18
2022-12-14T10:10:43.892Z,-0.10
2022-12-14T10:13:16.036Z,-0.12
2022-12-14T10:15:48.512Z,0.02
2022-12-14T10:18:58.825Z,0.09
2022-12-14T10:21:28.103Z,0.44
2022-12-14T10:23:57.378Z,0.68
2022-12-14T10:26:27.463Z,0.88
2022-12-14T10:29:01.522Z,1.01
2022-12-14T10:31:44.720Z,1.20
2022-12-14T10:34:16.619Z,1.30
2022-12-14T10:37:03.141Z,1.42
2022-12-14T10:39:49.286Z,1.44
2022-12-14T10:42:24.628Z,1.31
2022-12-14T10:48:32.042Z,0.88
2022-12-14T10:51:01.780Z,0.91
2022-12-14T10:53:35.793Z,0.95
2022-12-14T10:56:11.174Z,0.98
2022-12-14T10:58:37.602Z,0.91
2022-12-14T11:01:03.997Z,1.00
2022-12-14T11:03:30.624Z,1.18
2022-12-14T11:06:02.480Z,1.51
2022-12-14T11:08:58.371Z,1.61
2022-12-14T11:11:25.952Z,1.67
2022-12-14T11:13:54.158Z,1.90
2022-12-14T11:16:30.303Z,2.09
2022-12-14T11:19:01.707Z,2.15
2022-12-14T11:21:33.070Z,2.19
2022-12-14T11:23:59.446Z,2.16
2022-12-14T11:26:31.705Z,2.50
2022-12-14T11:28:59.523Z,2.54
2022-12-14T11:31:33.472Z,2.39
2022-12-14T11:34:00.711Z,2.38
2022-12-14T11:36:32.987Z,2.35
2022-12-14T11:39:00.957Z,2.24
2022-12-14T11:41:31.044Z,2.32
2022-12-14T11:44:02.054Z,2.27
2022-12-14T11:46:47.344Z,2.36
2022-12-14T11:49:29.207Z,2.64
2022-12-14T11:52:01.402Z,3.05
2022-12-14T11:54:28.892Z,3.28
2022-12-14T11:56:57.844Z,3.36
2022-12-14T11:59:25.767Z,3.59
2022-12-14T12:01:52.497Z,3.94
2022-12-14T12:04:19.169Z,3.94
2022-12-14T12:06:45.753Z,4.28
2022-12-14T12:09:25.127Z,4.35
2022-12-14T12:11:51.701Z,4.25
2022-12-14T12:14:30.609Z,4.23
2022-12-14T12:16:57.815Z,4.25
2022-12-14T12:19:37.100Z,4.42
2022-12-14T12:22:05.303Z,4.49
2022-12-14T12:24:55.075Z,4.53
2022-12-14T12:27:24.755Z,4.19
2022-12-14T12:30:03.581Z,4.42
2022-12-14T12:32:51.254Z,4.76
2022-12-14T12:35:32.887Z,4.58
2022-12-14T12:38:03.184Z,4.68
2022-12-14T12:40:46.629Z,4.68
2022-12-14T12:43:20.131Z,5.10
2022-12-14T12:45:49.605Z,4.81
2022-12-14T12:48:26.227Z,5.15
2022-12-14T12:50:59.726Z,4.97
2022-12-14T12:53:35.816Z,4.73
2022-12-14T12:56:05.887Z,4.64
2022-12-14T12:58:34.214Z,4.56
2022-12-14T13:01:02.391Z,4.20
2022-12-14T13:03:37.493Z,4.01
2022-12-14T13:06:16.025Z,4.07
2022-12-14T13:08:43.692Z,3.55
2022-12-14T13:11:26.193Z,3.79
2022-12-14T13:14:00.314Z,3.72
2022-12-14T13:16:32.594Z,3.76
2022-12-14T13:19:19.037Z,4.03
2022-12-14T13:21:50.806Z,4.19
2022-12-14T13:24:18.583Z,4.22
2022-12-14T13:26:58.565Z,4.15
2022-12-14T13:29:34.331Z,4.20
2022-12-14T13:32:18.147Z,4.03
2022-12-14T13:34:44.445Z,3.93
2022-12-14T13:37:37.311Z,3.66
2022-12-14T13:40:13.547Z,3.67
2022-12-14T13:42:43.092Z,3.50
2022-12-14T13:45:18.305Z,3.31
2022-12-14T13:47:48.518Z,3.09
2022-12-14T13:50:35.793Z,2.99
2022-12-14T13:53:13.036Z,2.84
2022-12-14T13:55:52.076Z,2.79
2022-12-14T13:58:47.919Z,2.73
2022-12-14T14:01:18.025Z,2.73
2022-12-14T14:03:46.813Z,2.85
2022-12-14T14:06:19.230Z,2.93
2022-12-14T14:08:47.167Z,2.77
2022-12-14T14:11:38.953Z,2.80
2022-12-14T14:14:17.271Z,2.91
2022-12-14T14:17:02.270Z,2.80
2022-12-14T14:19:34.802Z,2.79
2022-12-14T14:22:26.428Z,2.75
2022-12-14T14:24:56.138Z,2.63
2022-12-14T14:27:24.540Z,2.64
2022-12-14T14:29:51.741Z,2.57
2022-12-14T14:32:38.286Z,2.44
2022-12-14T14:35:07.872Z,2.30
2022-12-14T14:37:36.519Z,2.34
2022-12-14T14:40:23.951Z,2.37
2022-12-14T14:43:03.922Z,2.44
2022-12-14T14:45:38.839Z,2.45
2022-12-14T14:48:20.769Z,2.48
2022-12-14T14:50:48.903Z,2.45
2022-12-14T14:53:18.347Z,2.21
2022-12-14T14:55:54.439Z,2.17
2022-12-14T14:58:25.681Z,2.13
2022-12-14T15:00:52.009Z,2.06
2022-12-14T15:03:22.299Z,2.01
2022-12-14T15:05:49.750Z,1.89
2022-12-14T15:08:34.161Z,1.73
2022-12-14T15:11:03.747Z,1.64
2022-12-14T15:13:35.213Z,2.16
2022-12-14T15:16:01.711Z,2.13
2022-12-14T15:18:32.832Z,1.91
2022-12-14T15:21:05.425Z,1.68
2022-12-14T15:23:49.416Z,1.51
2022-12-14T15:26:19.647Z,1.42
2022-12-14T15:28:50.364Z,1.32
2022-12-14T15:31:17.231Z,1.20
2022-12-14T15:33:44.670Z,1.10
2022-12-14T15:36:16.129Z,1.01
2022-12-14T15:38:51.002Z,0.90
2022-12-14T15:41:18.316Z,0.85
2022-12-14T15:43:45.778Z,0.72
2022-12-14T15:46:17.526Z,0.66
2022-12-14T15:48:44.212Z,0.59
2022-12-14T15:51:16.611Z,0.55
2022-12-14T15:53:50.337Z,0.47
2022-12-14T15:56:26.353Z,0.37
2022-12-14T15:58:53.236Z,0.25
2022-12-14T16:01:22.328Z,0.20
2022-12-14T16:03:54.564Z,0.15
2022-12-14T16:06:22.253Z,0.09
2022-12-14T16:08:55.042Z,0.04
2022-12-14T16:11:41.888Z,-0.03
2022-12-14T16:14:31.137Z,-0.10
2022-12-14T16:16:57.718Z,-0.17
2022-12-14T16:19:28.924Z,-0.27
2022-12-14T16:22:08.624Z,-0.33
2022-12-14T16:24:35.715Z,-0.41
2022-12-14T16:27:02.271Z,-0.47
2022-12-14T16:29:29.960Z,-0.51
2022-12-14T16:32:15.416Z,-0.57
2022-12-14T16:34:45.666Z,-0.63
2022-12-14T16:37:32.179Z,-0.68
2022-12-14T16:39:59.344Z,-0.75
2022-12-14T16:42:26.477Z,-0.86
2022-12-14T16:44:56.121Z,-0.91
2022-12-14T16:47:34.711Z,-1.00
2022-12-14T16:50:01.136Z,-1.02
2022-12-14T16:52:32.397Z,-1.08
2022-12-14T16:55:14.653Z,-1.11
2022-12-14T16:57:58.673Z,-1.19
2022-12-14T17:00:29.942Z,-1.27
2022-12-14T17:02:58.916Z,-1.30
2022-12-14T17:05:28.834Z,-1.30
2022-12-14T17:07:55.168Z,-1.34
2022-12-14T17:10:22.778Z,-1.38
2022-12-14T17:12:49.679Z,-1.42
2022-12-14T17:15:17.235Z,-1.47
2022-12-14T17:17:44.584Z,-1.50
2022-12-14T17:20:21.709Z,-1.49
2022-12-14T17:22:49.648Z,-1.51
2022-12-14T17:25:16.274Z,-1.50
2022-12-14T17:27:42.621Z,-1.52
2022-12-14T17:30:14.526Z,-1.58
2022-12-14T17:32:42.700Z,-1.61
2022-12-14T17:35:20.384Z,-1.61
2022-12-14T17:37:47.159Z,-1.64
2022-12-14T17:40:15.818Z,-1.64
2022-12-14T17:42:44.554Z,-1.62
2022-12-14T17:45:27.828Z,-1.67
2022-12-14T17:47:54.719Z,-1.68
2022-12-14T17:50:21.605Z,-1.72
2022-12-14T17:52:48.395Z,-1.71
2022-12-14T17:55:19.583Z,-1.72
2022-12-14T17:57:47.185Z,-1.73
2022-12-14T18:00:35.907Z,-1.76
2022-12-14T18:03:03.379Z,-1.79
2022-12-14T18:05:30.490Z,-1.80
2022-12-14T18:07:56.899Z,-1.83
2022-12-14T18:10:23.338Z,-1.86
2022-12-14T18:12:49.821Z,-1.87
2022-12-14T18:15:30.108Z,-1.87
2022-12-14T18:17:56.528Z,-1.89
2022-12-14T18:20:23.906Z,-1.91
2022-12-14T18:22:50.891Z,-1.94
2022-12-14T18:25:29.235Z,-1.94
2022-12-14T18:27:55.665Z,-1.96
2022-12-14T18:30:22.148Z,-1.99
2022-12-14T18:32:48.602Z,-2.02
2022-12-14T18:35:19.649Z,-2.04
2022-12-14T18:37:49.360Z,-2.04
2022-12-14T18:40:18.019Z,-2.03
2022-12-14T18:42:44.848Z,-2.00
2022-12-14T18:45:21.579Z,-2.02
2022-12-14T18:47:48.709Z,-2.00
2022-12-14T18:50:16.297Z,-2.00
2022-12-14T18:52:43.243Z,-2.00
2022-12-14T18:55:15.843Z,-2.01
2022-12-14T18:57:45.003Z,-2.01
2022-12-14T19:00:12.996Z,-1.99
2022-12-14T19:02:39.798Z,-1.99
2022-12-14T19:05:07.151Z,-2.01
2022-12-14T19:07:33.560Z,-2.01
2022-12-14T19:10:00.239Z,-2.00
2022-12-14T19:12:26.640Z,-2.01
2022-12-14T19:14:53.318Z,-1.99
2022-12-14T19:17:19.769Z,-1.98
2022-12-14T19:19:46.115Z,-2.00
2022-12-14T19:22:12.609Z,-1.98
2022-12-14T19:24:39.033Z,-1.99
2022-12-14T19:27:06.069Z,-2.02
2022-12-14T19:29:32.497Z,-2.04
2022-12-14T19:32:03.537Z,-2.03
2022-12-14T19:34:32.053Z,-2.06
2022-12-14T19:36:58.442Z,-2.08
2022-12-14T19:39:24.757Z,-2.08
2022-12-14T19:41:51.245Z,-2.07
2022-12-14T19:44:17.763Z,-2.06
2022-12-14T19:46:44.236Z,-2.06
2022-12-14T19:49:12.782Z,-2.06
2022-12-14T19:51:39.145Z,-2.09
2022-12-14T19:54:06.740Z,-2.08
2022-12-14T19:56:33.152Z,-2.07
2022-12-14T19:59:00.839Z,-2.09
2022-12-14T20:01:31.629Z,-2.10
2022-12-14T20:04:00.165Z,-2.10
2022-12-14T20:06:26.633Z,-2.09
2022-12-14T20:08:56.669Z,-2.08
2022-12-14T20:11:24.066Z,-2.07
2022-12-14T20:13:56.257Z,-2.02
2022-12-14T20:16:23.907Z,-2.03
2022-12-14T20:18:50.332Z,-1.71
2022-12-14T20:21:21.847Z,-1.91
2022-12-14T20:23:49.171Z,-1.98
2022-12-14T20:26:17.276Z,-2.00
2022-12-14T20:28:43.717Z,-2.03
2022-12-14T20:31:15.326Z,-2.03
2022-12-14T20:33:41.721Z,-2.07
2022-12-14T20:36:08.306Z,-2.06
2022-12-14T20:38:34.676Z,-2.09
2022-12-14T20:41:07.098Z,-2.08
2022-12-14T20:43:34.838Z,-2.11
2022-12-14T20:46:01.247Z,-2.14
2022-12-14T20:48:27.640Z,-2.14
2022-12-14T20:50:59.331Z,-2.11
2022-12-14T20:53:26.017Z,-2.11
2022-12-14T20:55:52.355Z,-2.13
2022-12-14T20:58:18.767Z,-2.11
2022-12-14T21:00:45.209Z,-2.10
2022-12-14T21:03:11.808Z,-2.10
2022-12-14T21:05:41.951Z,-2.11
2022-12-14T21:08:08.614Z,-2.10
2022-12-14T21:10:35.131Z,-2.08
2022-12-14T21:13:07.282Z,-2.04
2022-12-14T21:15:35.381Z,-2.01
2022-12-14T21:18:02.435Z,-1.99
2022-12-14T21:20:28.829Z,-1.99
2022-12-14T21:22:55.179Z,-1.96
2022-12-14T21:25:21.615Z,-1.95
2022-12-14T21:27:47.990Z,-1.99
2022-12-14T21:30:14.459Z,-1.99
2022-12-14T21:32:41.696Z,-1.99
2022-12-14T21:35:08.890Z,-1.97
2022-12-14T21:37:36.926Z,-1.94
2022-12-14T21:40:03.832Z,-1.94
2022-12-14T21:42:30.223Z,-1.93
2022-12-14T21:44:57.558Z,-1.90
2022-12-14T21:47:25.283Z,-1.86
2022-12-14T21:49:51.701Z,-1.85
2022-12-14T21:52:19.925Z,-1.82
2022-12-14T21:54:46.455Z,-1.80
2022-12-14T21:57:32.780Z,-1.82
2022-12-14T21:59:59.201Z,-1.83
2022-12-14T22:02:25.651Z,-1.81
2022-12-14T22:04:55.923Z,-1.84
2022-12-14T22:07:23.487Z,-1.84
2022-12-14T22:09:50.231Z,-1.84
2022-12-14T22:12:17.417Z,-1.84
2022-12-14T22:14:43.753Z,-1.84
2022-12-14T22:17:11.221Z,-1.90
2022-12-14T22:19:37.555Z,-1.91
2022-12-14T22:22:03.991Z,-1.93
2022-12-14T22:24:30.535Z,-1.96
2022-12-14T22:26:57.211Z,-1.97
2022-12-14T22:29:24.073Z,-2.01
2022-12-14T22:31:51.363Z,-2.01
2022-12-14T22:34:19.168Z,-2.03
2022-12-14T22:36:45.934Z,-2.02
2022-12-14T22:39:12.395Z,-2.06
2022-12-14T22:41:39.052Z,-2.05
2022-12-14T22:44:05.462Z,-2.04
2022-12-14T22:46:33.164Z,-2.04
2022-12-14T22:49:01.221Z,-2.03
2022-12-14T22:51:29.170Z,-2.00
2022-12-14T22:53:56.176Z,-2.02
2022-12-14T22:56:41.496Z,-2.01
2022-12-14T22:59:10.994Z,-2.04
2022-12-14T23:01:37.907Z,-2.05
2022-12-14T23:04:06.203Z,-2.05
2022-12-14T23:06:33.219Z,-2.04
2022-12-14T23:09:18.215Z,-2.06
2022-12-14T23:12:03.079Z,-2.09
2022-12-14T23:14:48.059Z,-2.09
2022-12-14T23:17:33.279Z,-2.13
2022-12-14T23:20:18.454Z,-2.15
2022-12-14T23:23:03.803Z,-2.15
2022-12-14T23:25:51.731Z,-2.18
2022-12-14T23:28:36.668Z,-2.19
2022-12-14T23:31:21.571Z,-2.20
2022-12-14T23:34:06.793Z,-2.20
2022-12-14T23:36:51.616Z,-2.19
2022-12-14T23:39:36.503Z,-2.18
2022-12-14T23:42:21.620Z,-2.18
2022-12-14T23:45:06.481Z,-2.16
2022-12-14T23:47:51.662Z,-2.14
2022-12-14T23:50:36.856Z,-2.12
2022-12-14T23:53:25.446Z,-2.09
2022-12-14T23:56:10.316Z,-2.10
2022-12-14T23:58:55.784Z,-2.09
